createdAt,value
2022-09-07T00:01:54.394Z,100795.16
2022-09-07T00:04:22.302Z,100792.50
2022-09-07T00:06:49.974Z,100798.84
2022-09-07T00:09:19.319Z,100790.84
2022-09-07T00:11:47.195Z,100793.59
2022-09-07T00:14:14.869Z,100793.69
2022-09-07T00:16:42.660Z,100787.47
2022-09-07T00:19:10.379Z,100784.84
2022-09-07T00:21:38.827Z,100781.31
2022-09-07T00:24:06.737Z,100779.59
2022-09-07T00:26:35.920Z,100776.97
2022-09-07T00:29:06.287Z,100763.63
2022-09-07T00:31:34.587Z,100769.03
2022-09-07T00:34:03.294Z,100761.97
2022-09-07T00:36:31.324Z,100761.19
2022-09-07T00:38:59.434Z,100766.69
2022-09-07T00:41:27.705Z,100766.81
2022-09-07T00:43:58.371Z,100762.44
2022-09-07T00:46:28.730Z,100768.75
2022-09-07T00:49:00.784Z,100759.94
2022-09-07T00:51:33.489Z,100769.84
2022-09-07T00:54:06.865Z,100777.09
2022-09-07T00:56:39.256Z,100781.66
2022-09-07T00:59:09.289Z,100778.19
2022-09-07T01:01:37.408Z,100772.03
2022-09-07T01:04:05.172Z,100767.63
2022-09-07T01:06:35.475Z,100774.00
2022-09-07T01:09:05.286Z,100780.31
2022-09-07T01:11:35.314Z,100777.72
2022-09-07T01:14:04.809Z,100788.53
2022-09-07T01:16:50.986Z,100782.31
2022-09-07T01:19:42.652Z,100787.69
2022-09-07T01:22:26.131Z,100784.19
2022-09-07T01:25:03.882Z,100782.44
2022-09-07T01:28:02.927Z,100777.13
2022-09-07T01:30:35.865Z,100780.72
2022-09-07T01:33:34.584Z,100779.88
2022-09-07T01:36:12.520Z,100776.38
2022-09-07T01:38:45.650Z,100767.50
2022-09-07T01:41:21.411Z,100778.28
2022-09-07T01:43:55.204Z,100775.69
2022-09-07T01:46:28.711Z,100781.97
2022-09-07T01:49:01.378Z,100778.47
2022-09-07T01:51:32.773Z,100779.47
2022-09-07T01:54:06.449Z,100778.66
2022-09-07T01:56:37.569Z,100775.22
2022-09-07T01:59:16.045Z,100781.56
2022-09-07T02:01:50.670Z,100779.03
2022-09-07T02:04:22.523Z,100780.00
2022-09-07T02:06:55.838Z,100772.03
2022-09-07T02:09:30.185Z,100772.16
2022-09-07T02:11:58.589Z,100780.22
2022-09-07T02:14:32.054Z,100778.44
2022-09-07T02:17:04.370Z,100774.13
2022-09-07T02:19:37.497Z,100781.38
2022-09-07T02:22:14.607Z,100775.25
2022-09-07T02:24:46.813Z,100772.59
2022-09-07T02:27:19.719Z,100776.25
2022-09-07T02:29:48.752Z,100767.41
2022-09-07T02:32:16.426Z,100763.09
2022-09-07T02:34:44.177Z,100764.03
2022-09-07T02:37:13.308Z,100749.84
2022-09-07T02:39:41.135Z,100743.69
2022-09-07T02:42:10.110Z,100740.16
2022-09-07T02:44:40.606Z,100730.50
2022-09-07T02:47:25.272Z,100727.00
2022-09-07T02:50:13.259Z,100729.72
2022-09-07T02:52:47.908Z,100718.22
2022-09-07T02:55:27.060Z,100712.09
2022-09-07T02:58:06.064Z,100710.34
2022-09-07T03:00:40.216Z,100707.75
2022-09-07T03:03:16.710Z,100707.84
2022-09-07T03:05:50.159Z,100707.00
2022-09-07T03:08:21.816Z,100719.56
2022-09-07T03:10:50.999Z,100715.22
2022-09-07T03:13:22.938Z,100724.16
2022-09-07T03:15:55.112Z,100719.75
2022-09-07T03:18:25.828Z,100726.03
2022-09-07T03:20:53.882Z,100726.16
2022-09-07T03:23:21.557Z,100733.28
2022-09-07T03:25:49.706Z,100735.13
2022-09-07T03:28:17.509Z,100727.16
2022-09-07T03:30:46.238Z,100714.75
2022-09-07T03:33:15.848Z,100716.63
2022-09-07T03:35:45.547Z,100718.44
2022-09-07T03:38:13.643Z,100717.59
2022-09-07T03:40:41.518Z,100711.44
2022-09-07T03:43:09.269Z,100705.25
2022-09-07T03:45:36.978Z,100708.94
2022-09-07T03:48:04.765Z,100702.69
2022-09-07T03:50:32.379Z,100704.56
2022-09-07T03:53:01.377Z,100695.72
2022-09-07T03:55:29.001Z,100702.06
2022-09-07T03:57:56.799Z,100702.13
2022-09-07T04:00:24.427Z,100705.75
2022-09-07T04:02:52.157Z,100708.47
2022-09-07T04:05:19.842Z,100701.41
2022-09-07T04:07:49.097Z,100698.75
2022-09-07T04:10:18.324Z,100694.34
2022-09-07T04:12:45.955Z,100683.66
2022-09-07T04:15:13.587Z,100675.69
2022-09-07T04:17:41.217Z,100681.03
2022-09-07T04:20:09.926Z,100681.03
2022-09-07T04:22:37.580Z,100687.25
2022-09-07T04:25:05.805Z,100680.13
2022-09-07T04:27:34.777Z,100673.00
2022-09-07T04:30:02.455Z,100665.88
2022-09-07T04:32:30.357Z,100668.56
2022-09-07T04:34:57.996Z,100665.00
2022-09-07T04:37:25.629Z,100666.78
2022-09-07T04:39:53.488Z,100665.00
2022-09-07T04:42:21.635Z,100668.53
2022-09-07T04:44:51.470Z,100667.63
2022-09-07T04:47:19.143Z,100655.97
2022-09-07T04:49:46.787Z,100648.88
2022-09-07T04:52:14.455Z,100636.41
2022-09-07T04:54:42.592Z,100645.31
2022-09-07T04:57:10.558Z,100657.78
2022-09-07T04:59:38.326Z,100662.19
2022-09-07T05:02:07.641Z,100663.03
2022-09-07T05:04:36.014Z,100673.72
2022-09-07T05:07:03.674Z,100680.78
2022-09-07T05:09:31.457Z,100670.06
2022-09-07T05:11:59.140Z,100657.56
2022-09-07T05:14:27.070Z,100653.09
2022-09-07T05:16:54.821Z,100651.25
2022-09-07T05:19:24.093Z,100652.09
2022-09-07T05:21:51.796Z,100646.72
2022-09-07T05:24:19.779Z,100652.88
2022-09-07T05:26:47.430Z,100644.84
2022-09-07T05:32:03.156Z,100649.22
2022-09-07T05:34:32.546Z,100649.16
2022-09-07T05:37:01.063Z,100652.72
2022-09-07T05:39:28.991Z,100642.88
2022-09-07T05:41:57.075Z,100644.59
2022-09-07T05:47:13.449Z,100639.16
2022-09-07T05:49:42.599Z,100645.34
2022-09-07T05:52:10.508Z,100649.81
2022-09-07T05:54:38.243Z,100647.97
2022-09-07T05:57:07.329Z,100655.97
2022-09-07T05:59:35.459Z,100653.25
2022-09-07T06:02:03.237Z,100661.22
2022-09-07T06:04:30.921Z,100663.84
2022-09-07T06:07:20.564Z,100678.91
2022-09-07T06:12:35.804Z,100762.56
2022-09-07T06:15:04.919Z,100723.31
2022-09-07T06:17:33.200Z,100697.56
2022-09-07T06:20:00.843Z,100727.81
2022-09-07T06:22:31.130Z,100732.19
2022-09-07T06:24:59.172Z,100706.28
2022-09-07T06:27:26.815Z,100707.97
2022-09-07T06:29:54.505Z,100739.97
2022-09-07T06:35:11.056Z,100720.97
2022-09-07T06:37:40.130Z,100766.31
2022-09-07T06:40:10.480Z,100764.41
2022-09-07T06:42:38.474Z,100743.75
2022-09-07T06:45:07.472Z,100734.69
2022-09-07T06:47:35.108Z,100740.75
2022-09-07T06:50:02.746Z,100728.22
2022-09-07T06:55:19.346Z,100711.97
2022-09-07T06:57:46.961Z,100711.84
2022-09-07T07:00:15.462Z,100702.69
2022-09-07T07:02:43.098Z,100698.03
2022-09-07T07:05:11.041Z,100703.13
2022-09-07T07:07:38.674Z,100691.31
2022-09-07T07:10:07.151Z,100691.91
2022-09-07T07:15:02.839Z,100679.75
2022-09-07T07:17:30.518Z,100679.50
2022-09-07T07:19:58.160Z,100685.56
2022-09-07T07:25:13.378Z,100673.50
2022-09-07T07:27:42.518Z,100679.53
2022-09-07T07:30:11.142Z,100686.47
2022-09-07T07:32:38.843Z,100696.91
2022-09-07T07:35:08.715Z,100687.63
2022-09-07T07:37:37.127Z,100680.13
2022-09-07T07:40:23.562Z,100685.19
2022-09-07T07:42:55.757Z,100685.72
2022-09-07T07:48:12.636Z,100686.03
2022-09-07T07:50:40.253Z,100676.81
2022-09-07T07:55:58.187Z,100661.94
2022-09-07T07:58:27.892Z,100653.66
2022-09-07T08:00:56.457Z,100659.72
2022-09-07T08:03:26.134Z,100647.91
2022-09-07T08:05:54.157Z,100647.66
2022-09-07T08:08:23.103Z,100642.19
2022-09-07T08:10:50.818Z,100640.25
2022-09-07T08:13:19.224Z,100638.34
2022-09-07T08:15:48.515Z,100643.53
2022-09-07T08:18:17.676Z,100648.75
2022-09-07T08:20:45.360Z,100651.25
2022-09-07T08:23:13.051Z,100657.44
2022-09-07T08:25:50.610Z,100652.75
2022-09-07T08:28:18.245Z,100650.78
2022-09-07T08:30:45.934Z,100652.44
2022-09-07T08:33:15.407Z,100658.66
2022-09-07T08:35:43.257Z,100655.00
2022-09-07T08:38:11.330Z,100650.44
2022-09-07T08:40:39.599Z,100649.56
2022-09-07T08:43:17.402Z,100656.63
2022-09-07T08:45:48.535Z,100662.78
2022-09-07T08:48:21.048Z,100669.66
2022-09-07T08:50:56.225Z,100673.06
2022-09-07T08:53:25.660Z,100684.47
2022-09-07T08:55:57.213Z,100687.81
2022-09-07T08:58:48.671Z,100686.75
2022-09-07T09:01:35.702Z,100687.41
2022-09-07T09:04:19.468Z,100676.31
2022-09-07T09:06:58.450Z,100678.72
2022-09-07T09:09:34.269Z,100692.66
2022-09-07T09:12:13.736Z,100689.63
2022-09-07T09:14:57.704Z,100690.06
2022-09-07T09:17:31.942Z,100693.22
2022-09-07T09:20:11.798Z,100692.69
2022-09-07T09:22:39.820Z,100686.88
2022-09-07T09:25:18.980Z,100681.81
2022-09-07T09:27:46.912Z,100678.69
2022-09-07T09:30:16.166Z,100676.84
2022-09-07T09:32:45.419Z,100682.53
2022-09-07T09:35:19.581Z,100676.59
2022-09-07T09:37:47.289Z,100675.53
2022-09-07T09:40:26.808Z,100677.66
2022-09-07T09:43:03.726Z,100670.00
2022-09-07T09:48:31.545Z,100681.09
2022-09-07T09:53:56.766Z,100664.16
2022-09-07T09:56:37.001Z,100667.03
2022-09-07T10:05:26.967Z,100659.59
2022-09-07T10:07:56.810Z,100649.75
2022-09-07T10:10:25.958Z,100650.06
2022-09-07T10:12:55.197Z,100640.94
2022-09-07T10:15:30.080Z,100637.31
2022-09-07T10:17:59.453Z,100641.09
2022-09-07T10:20:33.601Z,100645.44
2022-09-07T10:23:03.894Z,100634.72
2022-09-07T10:25:33.654Z,100629.81
2022-09-07T10:28:15.424Z,100621.84
2022-09-07T10:30:55.402Z,100633.72
2022-09-07T10:33:35.069Z,100631.91
2022-09-07T10:36:10.864Z,100640.34
2022-09-07T10:38:46.711Z,100635.38
2022-09-07T10:41:15.686Z,100635.97
2022-09-07T10:43:45.107Z,100637.56
2022-09-07T10:46:57.922Z,100626.72
2022-09-07T10:49:34.493Z,100619.28
2022-09-07T10:52:12.178Z,100624.84
2022-09-07T10:54:49.940Z,100624.72
2022-09-07T10:57:33.225Z,100618.22
2022-09-07T11:00:08.960Z,100612.72
2022-09-07T11:05:53.304Z,100629.13
2022-09-07T11:09:15.083Z,100619.84
2022-09-07T11:14:20.097Z,100610.25
2022-09-07T11:16:53.561Z,100615.44
2022-09-07T11:19:35.920Z,100612.09
2022-09-07T11:22:15.355Z,100617.28
2022-09-07T11:25:29.208Z,100609.03
2022-09-07T11:27:42.678Z,100612.09
2022-09-07T11:30:19.720Z,100606.31
2022-09-07T11:32:54.602Z,100601.13
2022-09-07T11:35:31.029Z,100605.81
2022-09-07T11:38:05.413Z,100610.19
2022-09-07T11:40:37.236Z,100613.00
2022-09-07T11:43:18.328Z,100607.03
2022-09-07T11:45:50.436Z,100605.13
2022-09-07T11:48:22.818Z,100610.41
2022-09-07T11:50:54.923Z,100598.94
2022-09-07T11:53:27.331Z,100600.72
2022-09-07T11:55:59.833Z,100604.03
2022-09-07T11:58:53.224Z,100611.16
2022-09-07T12:01:33.238Z,100606.63
2022-09-07T12:04:31.598Z,100608.75
2022-09-07T12:07:25.376Z,100608.75
2022-09-07T12:10:24.991Z,100607.63
2022-09-07T12:13:22.805Z,100590.47
2022-09-07T12:15:59.632Z,100583.47
2022-09-07T12:18:41.229Z,100580.13
2022-09-07T12:21:32.214Z,100566.56
2022-09-07T12:24:00.086Z,100575.91
2022-09-07T12:26:52.960Z,100564.47
2022-09-07T12:29:23.688Z,100564.84
2022-09-07T12:31:59.582Z,100568.53
2022-09-07T12:34:47.295Z,100557.88
2022-09-07T12:37:38.387Z,100562.84
2022-09-07T12:40:39.470Z,100565.78
2022-09-07T12:43:47.155Z,100560.56
2022-09-07T12:46:43.365Z,100558.47
2022-09-07T12:49:41.855Z,100548.34
2022-09-07T12:52:25.602Z,100553.41
2022-09-07T12:55:26.098Z,100545.00
2022-09-07T12:57:55.531Z,100540.38
2022-09-07T13:00:31.500Z,100541.09
2022-09-07T13:03:53.560Z,100537.09
2022-09-07T13:09:32.819Z,100533.09
2022-09-07T13:12:04.815Z,100524.31
2022-09-07T13:14:37.045Z,100529.13
2022-09-07T13:17:43.211Z,100529.50
2022-09-07T13:20:39.120Z,100530.13
2022-09-07T13:23:31.353Z,100535.69
2022-09-07T13:26:01.332Z,100524.34
2022-09-07T13:28:41.412Z,100515.59
2022-09-07T13:31:40.936Z,100519.75
2022-09-07T13:34:31.424Z,100528.16
2022-09-07T13:36:59.807Z,100519.69
2022-09-07T13:39:30.114Z,100529.88
2022-09-07T13:42:00.232Z,100515.56
2022-09-07T13:44:32.891Z,100513.75
2022-09-07T13:47:11.337Z,100514.09
2022-09-07T13:49:51.391Z,100518.38
2022-09-07T13:52:28.896Z,100511.53
2022-09-07T13:55:20.746Z,100508.16
2022-09-07T13:58:04.056Z,100516.47
2022-09-07T14:00:32.051Z,100511.66
2022-09-07T14:03:05.803Z,100498.69
2022-09-07T14:05:34.156Z,100499.66
2022-09-07T14:08:01.848Z,100493.31
2022-09-07T14:10:30.985Z,100490.41
2022-09-07T14:13:07.535Z,100487.66
2022-09-07T14:15:39.384Z,100486.28
2022-09-07T14:18:13.400Z,100493.50
2022-09-07T14:20:44.749Z,100503.38
2022-09-07T14:23:21.061Z,100498.66
2022-09-07T14:28:39.969Z,100491.72
2022-09-07T14:31:12.198Z,100492.97
2022-09-07T14:33:46.530Z,100483.63
2022-09-07T14:36:37.391Z,100485.84
2022-09-07T14:39:04.515Z,100484.09
2022-09-07T14:41:38.453Z,100478.97
2022-09-07T14:44:06.467Z,100478.72
2022-09-07T14:46:35.099Z,100478.66
2022-09-07T14:49:07.634Z,100475.00
2022-09-07T14:51:37.037Z,100471.88
2022-09-07T14:54:07.193Z,100477.28
2022-09-07T14:56:38.146Z,100470.09
2022-09-07T14:59:28.149Z,100472.44
2022-09-07T15:02:24.953Z,100469.13
2022-09-07T15:05:18.368Z,100477.81
2022-09-07T15:07:51.093Z,100474.41
2022-09-07T15:10:29.267Z,100476.69
2022-09-07T15:13:00.071Z,100471.63
2022-09-07T15:15:30.841Z,100473.19
2022-09-07T15:18:07.610Z,100465.44
2022-09-07T15:20:38.854Z,100466.81
2022-09-07T15:23:11.061Z,100468.47
2022-09-07T15:25:40.646Z,100466.28
2022-09-07T15:33:59.931Z,100461.97
2022-09-07T15:36:28.810Z,100466.38
2022-09-07T15:39:00.087Z,100459.66
2022-09-07T15:41:28.583Z,100453.34
2022-09-07T15:43:57.692Z,100444.91
2022-09-07T15:46:25.435Z,100442.75
2022-09-07T15:48:55.643Z,100431.53
2022-09-07T15:54:13.690Z,100436.41
2022-09-07T15:56:42.753Z,100425.19
2022-09-07T15:59:12.883Z,100432.94
2022-09-07T16:01:56.859Z,100438.19
2022-09-07T16:04:25.151Z,100433.97
2022-09-07T16:06:52.880Z,100430.50
2022-09-07T16:09:22.111Z,100427.16
2022-09-07T16:11:50.867Z,100419.09
2022-09-07T16:14:20.211Z,100433.06
2022-09-07T16:19:36.170Z,100443.31
2022-09-07T16:22:04.190Z,100453.31
2022-09-07T16:24:32.300Z,100443.50
2022-09-07T16:26:59.966Z,100443.63
2022-09-07T16:29:28.936Z,100439.13
2022-09-07T16:34:44.944Z,100439.25
2022-09-07T16:40:28.005Z,100440.16
2022-09-07T16:42:55.664Z,100438.16
2022-09-07T16:48:12.721Z,100443.06
2022-09-07T16:50:40.398Z,100438.31
2022-09-07T16:53:08.536Z,100443.31
2022-09-07T16:55:36.224Z,100454.78
2022-09-07T17:00:52.860Z,100432.22
2022-09-07T17:03:20.541Z,100419.03
2022-09-07T17:05:48.123Z,100418.41
2022-09-07T17:08:15.775Z,100404.16
2022-09-07T17:10:43.787Z,100410.00
2022-09-07T17:13:11.425Z,100411.31
2022-09-07T17:15:39.130Z,100414.59
2022-09-07T17:18:08.475Z,100403.38
2022-09-07T17:20:36.272Z,100403.91
2022-09-07T17:23:04.574Z,100409.00
2022-09-07T17:25:33.238Z,100418.53
2022-09-07T17:28:01.025Z,100415.59
2022-09-07T17:30:28.611Z,100409.72
2022-09-07T17:32:56.290Z,100406.84
2022-09-07T17:35:25.550Z,100412.91
2022-09-07T17:37:53.168Z,100408.84
2022-09-07T17:40:20.870Z,100417.41
2022-09-07T17:45:36.760Z,100427.53
2022-09-07T17:48:04.604Z,100429.75
2022-09-07T17:50:33.524Z,100432.97
2022-09-07T17:53:01.055Z,100438.03
2022-09-07T17:55:28.718Z,100460.19
2022-09-07T17:57:59.057Z,100452.66
2022-09-07T18:00:28.881Z,100454.03
2022-09-07T18:02:56.832Z,100460.81
2022-09-07T18:05:24.530Z,100469.41
2022-09-07T18:07:53.431Z,100462.63
2022-09-07T18:10:22.362Z,100452.16
2022-09-07T18:12:50.066Z,100459.69
2022-09-07T18:15:21.120Z,100450.97
2022-09-07T18:17:48.732Z,100445.72
2022-09-07T18:20:17.913Z,100446.03
2022-09-07T18:22:46.818Z,100451.63
2022-09-07T18:25:16.164Z,100450.19
2022-09-07T18:27:44.390Z,100450.44
2022-09-07T18:30:13.853Z,100457.91
2022-09-07T18:32:41.561Z,100458.16
2022-09-07T18:35:10.156Z,100451.28
2022-09-07T18:37:38.299Z,100448.06
2022-09-07T18:40:09.029Z,100440.41
2022-09-07T18:42:40.433Z,100442.59
2022-09-07T18:47:56.367Z,100442.44
2022-09-07T18:50:24.040Z,100450.81
2022-09-07T18:52:52.564Z,100461.81
2022-09-07T18:55:20.715Z,100472.94
2022-09-07T18:57:49.851Z,100475.81
2022-09-07T19:00:18.046Z,100484.97
2022-09-07T19:02:47.524Z,100495.09
2022-09-07T19:08:03.901Z,100500.06
2022-09-07T19:10:35.139Z,100508.31
2022-09-07T19:13:04.401Z,100486.75
2022-09-07T19:15:37.132Z,100476.09
2022-09-07T19:18:06.062Z,100482.44
2022-09-07T19:20:34.484Z,100481.75
2022-09-07T19:23:02.752Z,100478.44
2022-09-07T19:25:30.362Z,100472.41
2022-09-07T19:27:58.096Z,100466.38
2022-09-07T19:30:28.005Z,100460.34
2022-09-07T19:32:55.584Z,100467.16
2022-09-07T19:35:23.229Z,100469.25
2022-09-07T19:37:50.848Z,100455.25
2022-09-07T19:40:19.406Z,100463.78
2022-09-07T19:42:47.170Z,100459.56
2022-09-07T19:45:15.800Z,100455.53
2022-09-07T19:47:44.829Z,100447.88
2022-09-07T19:50:12.513Z,100450.03
2022-09-07T19:52:40.089Z,100449.56
2022-09-07T19:55:08.811Z,100445.19
2022-09-07T19:57:36.406Z,100454.47
2022-09-07T20:00:05.453Z,100458.31
2022-09-07T20:02:39.484Z,100463.94
2022-09-07T20:05:09.171Z,100451.38
2022-09-07T20:07:36.775Z,100440.75
2022-09-07T20:10:04.585Z,100437.44
2022-09-07T20:12:32.180Z,100425.97
2022-09-07T20:14:59.810Z,100420.94
2022-09-07T20:17:29.690Z,100422.16
2022-09-07T20:20:00.713Z,100418.03
2022-09-07T20:22:29.643Z,100428.13
2022-09-07T20:24:57.295Z,100419.47
2022-09-07T20:27:26.687Z,100412.53
2022-09-07T20:29:54.346Z,100410.16
2022-09-07T20:32:21.929Z,100420.25
2022-09-07T20:34:50.559Z,100419.59
2022-09-07T20:37:18.160Z,100411.72
2022-09-07T20:39:48.660Z,100412.75
2022-09-07T20:42:16.367Z,100414.00
2022-09-07T20:44:44.016Z,100417.03
2022-09-07T20:47:12.058Z,100418.97
2022-09-07T20:49:39.739Z,100410.31
2022-09-07T20:52:07.351Z,100425.66
2022-09-07T20:54:34.983Z,100421.38
2022-09-07T20:57:04.292Z,100414.47
2022-09-07T20:59:32.131Z,100422.72
2022-09-07T21:01:59.797Z,100421.19
2022-09-07T21:04:27.560Z,100424.03
2022-09-07T21:06:56.248Z,100421.53
2022-09-07T21:09:24.427Z,100427.88
2022-09-07T21:11:56.744Z,100422.72
2022-09-07T21:14:26.006Z,100422.84
2022-09-07T21:16:53.667Z,100433.78
2022-09-07T21:19:21.526Z,100424.03
2022-09-07T21:21:49.171Z,100432.25
2022-09-07T21:24:19.311Z,100433.25
2022-09-07T21:26:48.265Z,100415.56
2022-09-07T21:29:19.118Z,100413.00
2022-09-07T21:31:48.583Z,100412.34
2022-09-07T21:34:16.947Z,100410.81
2022-09-07T21:36:44.654Z,100412.78
2022-09-07T21:39:14.515Z,100415.63
2022-09-07T21:41:43.379Z,100415.75
2022-09-07T21:44:12.704Z,100403.38
2022-09-07T21:46:41.327Z,100405.28
2022-09-07T21:49:10.518Z,100409.91
2022-09-07T21:51:38.255Z,100408.22
2022-09-07T21:54:06.063Z,100413.78
2022-09-07T21:56:33.731Z,100408.53
2022-09-07T21:59:02.951Z,100403.31
2022-09-07T22:01:31.855Z,100399.00
2022-09-07T22:04:01.573Z,100396.44
2022-09-07T22:06:32.433Z,100392.06
2022-09-07T22:09:01.041Z,100396.78
2022-09-07T22:11:30.443Z,100395.09
2022-09-07T22:14:00.335Z,100389.88
2022-09-07T22:16:28.457Z,100387.31
2022-09-07T22:18:57.587Z,100396.38
2022-09-07T22:21:27.238Z,100393.91
2022-09-07T22:23:59.950Z,100403.91
2022-09-07T22:26:29.934Z,100390.63
2022-09-07T22:28:59.441Z,100391.66
2022-09-07T22:31:30.063Z,100390.06
2022-09-07T22:33:58.895Z,100377.66
2022-09-07T22:36:29.433Z,100393.91
2022-09-07T22:39:01.367Z,100386.88
2022-09-07T22:41:31.509Z,100383.53
2022-09-07T22:44:00.297Z,100387.28
2022-09-07T22:46:32.149Z,100382.97
2022-09-07T22:49:00.365Z,100387.59
2022-09-07T22:51:28.668Z,100382.34
2022-09-07T22:53:58.413Z,100376.25
2022-09-07T22:56:28.147Z,100370.06
2022-09-07T22:58:57.541Z,100364.88
2022-09-07T23:01:26.125Z,100361.44
2022-09-07T23:03:54.266Z,100355.31
2022-09-07T23:06:23.709Z,100355.44
2022-09-07T23:08:52.746Z,100352.97
2022-09-07T23:11:22.626Z,100353.16
2022-09-07T23:13:51.407Z,100346.16
2022-09-07T23:16:19.275Z,100351.66
2022-09-07T23:18:47.102Z,100358.03
2022-09-07T23:21:14.909Z,100356.41
2022-09-07T23:23:42.637Z,100354.75
2022-09-07T23:26:10.700Z,100354.91
2022-09-07T23:28:39.721Z,100351.72
2022-09-07T23:31:11.304Z,100355.59
2022-09-07T23:33:39.223Z,100358.44
2022-09-07T23:36:08.183Z,100352.31
2022-09-07T23:38:35.955Z,100359.63
2022-09-07T23:41:04.338Z,100357.06
2022-09-07T23:43:32.056Z,100356.31
2022-09-07T23:46:01.196Z,100361.78
2022-09-07T23:48:29.263Z,100352.13
2022-09-07T23:50:56.930Z,100355.78
2022-09-07T23:53:25.090Z,100351.44
2022-09-07T23:55:53.517Z,100346.19
2022-09-07T23:58:22.627Z,100350.75
